Maitland, Canada
Current Conditions -  °F | °C
As of 7:00 PM on Wednesday 26 Nov 2014 (Local Time) from CYHZ Reporting Station
Light Rain Light Rain  
Wind Chill: 30°   Ceiling: 2200
Heat Index: 36°   Visibility: 4mi
Dew Point: 34°   Wind: 7mph
Humidity: 93%   Direction: 20°NNE
Pressure: 30.14"   Gusts: NA
Location:  45.32°N, 63.52°W
Report Text: CYHZ 262300Z 02006KT 4SM -RA BR BKN022 OVC060 02/01 A3014 RMK SC5NS3 PRESRR SLP212
Loading
Personal Weather Stations






























Interactive Weather Map New forecast layout! Learn more

10-Day Weather Forecast

Advertisements
Track Severe Weather on mobile